createdAt,value
2019-02-22T00:02:26.154Z,31.03
2019-02-22T00:04:55.126Z,30.70
2019-02-22T00:07:24.026Z,30.23
2019-02-22T00:09:52.829Z,29.33
2019-02-22T00:12:21.620Z,30.03
2019-02-22T00:14:50.444Z,30.60
2019-02-22T00:17:19.335Z,29.23
2019-02-22T00:19:48.697Z,29.13
2019-02-22T00:22:17.611Z,29.20
2019-02-22T00:24:46.578Z,27.33
2019-02-22T00:27:15.389Z,27.90
2019-02-22T00:29:44.235Z,28.30
2019-02-22T00:32:13.130Z,27.83
2019-02-22T00:34:42.092Z,27.77
2019-02-22T00:37:11.010Z,28.10
2019-02-22T00:39:39.910Z,27.93
2019-02-22T00:42:08.740Z,27.90
2019-02-22T00:44:37.561Z,26.70
2019-02-22T00:47:06.452Z,27.00
2019-02-22T00:49:35.290Z,27.10
2019-02-22T00:52:04.099Z,26.20
2019-02-22T00:54:32.923Z,26.97
2019-02-22T00:57:01.866Z,26.97
2019-02-22T00:59:30.934Z,26.60
2019-02-22T01:02:00.151Z,26.07
2019-02-22T01:04:29.552Z,26.07
2019-02-22T01:06:58.853Z,26.40
2019-02-22T01:09:28.152Z,26.77
2019-02-22T01:11:57.396Z,27.40
2019-02-22T01:14:26.703Z,27.93
2019-02-22T01:16:57.324Z,26.60
2019-02-22T01:19:26.664Z,26.43
2019-02-22T01:21:55.871Z,27.33
2019-02-22T01:24:25.046Z,26.60
2019-02-22T01:26:54.326Z,27.50
2019-02-22T01:29:23.611Z,27.93
2019-02-22T01:31:52.915Z,26.77
2019-02-22T01:34:22.184Z,27.63
2019-02-22T01:36:51.268Z,26.83
2019-02-22T01:39:20.320Z,28.17
2019-02-22T01:41:49.551Z,28.63
2019-02-22T01:44:22.317Z,26.20
2019-02-22T01:46:51.203Z,27.53
2019-02-22T01:49:20.023Z,27.40
2019-02-22T01:51:48.840Z,28.50
2019-02-22T01:54:17.658Z,26.50
2019-02-22T01:56:46.547Z,28.23
2019-02-22T01:59:15.453Z,27.63
2019-02-22T02:01:44.268Z,28.03
2019-02-22T02:04:13.058Z,27.37
2019-02-22T02:06:42.040Z,27.30
2019-02-22T02:09:11.076Z,26.97
2019-02-22T02:11:39.887Z,27.17
2019-02-22T02:14:08.831Z,28.73
2019-02-22T02:16:37.734Z,27.93
2019-02-22T02:19:06.613Z,28.07
2019-02-22T02:21:35.520Z,26.87
2019-02-22T02:24:04.539Z,26.80
2019-02-22T02:26:33.326Z,26.70
2019-02-22T02:29:02.230Z,27.33
2019-02-22T02:31:31.128Z,28.10
2019-02-22T02:34:00.035Z,27.37
2019-02-22T02:36:28.884Z,29.37
2019-02-22T02:38:57.706Z,28.57
2019-02-22T02:41:26.511Z,29.63
2019-02-22T02:43:55.396Z,27.63
2019-02-22T02:46:24.287Z,28.23
2019-02-22T02:48:53.122Z,28.63
2019-02-22T02:51:21.959Z,30.10
2019-02-22T02:53:50.799Z,28.70
2019-02-22T02:56:19.687Z,28.03
2019-02-22T02:58:48.524Z,29.73
2019-02-22T03:01:17.403Z,28.93
2019-02-22T03:03:46.207Z,28.47
2019-02-22T03:06:22.690Z,28.93
2019-02-22T03:08:51.991Z,28.73
2019-02-22T03:11:21.443Z,28.67
2019-02-22T03:13:50.814Z,29.90
2019-02-22T03:16:20.373Z,30.60
2019-02-22T03:18:49.697Z,28.83
2019-02-22T03:21:18.962Z,28.57
2019-02-22T03:23:48.197Z,31.03
2019-02-22T03:26:17.315Z,30.00
2019-02-22T03:28:46.552Z,31.13
2019-02-22T03:31:15.870Z,30.80
2019-02-22T03:33:45.403Z,31.43
2019-02-22T03:36:14.747Z,31.10
2019-02-22T03:38:44.028Z,30.27
2019-02-22T03:41:13.278Z,30.47
2019-02-22T03:43:42.467Z,31.87
2019-02-22T03:46:11.746Z,30.07
2019-02-22T03:48:41.010Z,30.80
2019-02-22T03:51:10.318Z,30.23
2019-02-22T03:53:43.540Z,30.70
2019-02-22T03:56:12.440Z,30.53
2019-02-22T03:58:41.409Z,30.57
2019-02-22T04:01:10.403Z,30.03
2019-02-22T04:03:39.287Z,30.10
2019-02-22T04:06:08.139Z,30.83
2019-02-22T04:08:37.024Z,30.60
2019-02-22T04:11:05.906Z,30.50
2019-02-22T04:13:34.724Z,28.77
2019-02-22T04:16:03.566Z,30.17
2019-02-22T04:18:32.537Z,31.07
2019-02-22T04:21:01.383Z,29.93
2019-02-22T04:23:30.211Z,30.77
2019-02-22T04:25:59.075Z,31.53
2019-02-22T04:28:27.876Z,31.13
2019-02-22T04:30:56.766Z,30.80
2019-02-22T04:33:25.670Z,29.90
2019-02-22T04:35:54.507Z,30.97
2019-02-22T04:38:23.295Z,31.33
2019-02-22T04:40:52.106Z,31.40
2019-02-22T04:43:20.943Z,31.27
2019-02-22T04:45:49.748Z,32.00
2019-02-22T04:48:18.558Z,32.37
2019-02-22T04:50:47.510Z,32.67
2019-02-22T04:53:16.431Z,31.13
2019-02-22T04:55:45.230Z,31.37
2019-02-22T04:58:14.055Z,30.97
2019-02-22T05:00:42.944Z,32.60
2019-02-22T05:03:11.917Z,30.93
2019-02-22T05:05:40.696Z,31.70
2019-02-22T05:08:09.539Z,32.53
2019-02-22T05:10:38.340Z,31.17
2019-02-22T05:13:07.146Z,31.00
2019-02-22T05:15:36.024Z,31.60
2019-02-22T05:18:04.833Z,32.60
2019-02-22T05:20:33.649Z,32.57
2019-02-22T05:23:04.382Z,33.60
2019-02-22T05:25:32.983Z,33.67
2019-02-22T05:28:01.888Z,32.13
2019-02-22T05:30:30.692Z,33.53
2019-02-22T05:32:59.486Z,33.03
2019-02-22T05:35:28.296Z,32.87
2019-02-22T05:37:57.137Z,32.67
2019-02-22T05:40:26.042Z,32.53
2019-02-22T05:42:54.879Z,32.57
2019-02-22T05:45:23.689Z,32.00
2019-02-22T05:47:52.518Z,33.37
2019-02-22T05:50:21.475Z,32.30
2019-02-22T05:52:50.406Z,33.63
2019-02-22T05:55:19.226Z,32.07
2019-02-22T05:57:48.026Z,32.53
2019-02-22T06:00:17.734Z,32.70
2019-02-22T06:02:46.552Z,31.30
2019-02-22T06:05:15.476Z,32.70
2019-02-22T06:07:44.308Z,33.73
2019-02-22T06:10:13.241Z,31.33
2019-02-22T06:12:42.107Z,32.53
2019-02-22T06:15:11.026Z,33.63
2019-02-22T06:17:39.863Z,33.43
2019-02-22T06:20:08.961Z,31.83
2019-02-22T06:22:37.780Z,34.27
2019-02-22T06:25:06.897Z,32.70
2019-02-22T06:27:35.760Z,32.43
2019-02-22T06:30:04.894Z,32.17
2019-02-22T06:32:33.779Z,32.30
2019-02-22T06:35:02.587Z,33.60
2019-02-22T06:37:31.475Z,32.07
2019-02-22T06:40:00.454Z,32.73
2019-02-22T06:42:29.423Z,32.30
2019-02-22T06:44:58.251Z,32.43
2019-02-22T06:47:27.182Z,32.50
2019-02-22T06:49:56.160Z,32.57
2019-02-22T06:52:24.994Z,33.70
2019-02-22T06:54:53.950Z,32.60
2019-02-22T06:57:22.776Z,31.80
2019-02-22T06:59:51.604Z,31.10
2019-02-22T07:02:20.494Z,33.10
2019-02-22T07:04:49.324Z,34.27
2019-02-22T07:07:18.171Z,33.27
2019-02-22T07:09:47.001Z,33.77
2019-02-22T07:12:34.631Z,34.73
2019-02-22T07:15:03.814Z,35.50
2019-02-22T07:17:32.642Z,34.70
2019-02-22T07:20:01.506Z,34.00
2019-02-22T07:22:30.434Z,36.03
2019-02-22T07:24:59.349Z,34.20
2019-02-22T07:27:28.151Z,34.17
2019-02-22T07:29:57.023Z,33.53
2019-02-22T07:32:25.858Z,35.47
2019-02-22T07:34:54.701Z,34.17
2019-02-22T07:37:23.637Z,37.53
2019-02-22T07:39:52.496Z,36.83
2019-02-22T07:42:21.334Z,38.03
2019-02-22T07:44:50.174Z,36.80
2019-02-22T07:47:18.991Z,38.83
2019-02-22T07:49:48.072Z,36.47
2019-02-22T07:52:16.951Z,36.37
2019-02-22T07:54:45.792Z,37.10
2019-02-22T07:57:14.703Z,36.50
2019-02-22T07:59:43.571Z,35.03
2019-02-22T08:02:12.422Z,35.60
2019-02-22T08:04:41.244Z,34.23
2019-02-22T08:07:10.078Z,35.03
2019-02-22T08:09:38.996Z,36.87
2019-02-22T08:12:07.833Z,35.03
2019-02-22T08:14:36.719Z,35.27
2019-02-22T08:17:05.623Z,33.43
2019-02-22T08:19:34.481Z,34.27
2019-02-22T08:22:03.692Z,33.93
2019-02-22T08:24:32.573Z,33.83
2019-02-22T08:27:01.432Z,33.73
2019-02-22T08:29:30.320Z,31.97
2019-02-22T08:31:59.141Z,31.60
2019-02-22T08:34:28.091Z,31.27
2019-02-22T08:36:56.927Z,31.63
2019-02-22T08:39:25.758Z,30.93
2019-02-22T08:41:54.604Z,28.50
2019-02-22T08:44:23.519Z,28.47
2019-02-22T08:46:52.420Z,28.53
2019-02-22T08:49:21.344Z,29.43
2019-02-22T08:51:50.162Z,26.90
2019-02-22T08:54:18.954Z,26.23
2019-02-22T08:56:47.803Z,25.03
2019-02-22T08:59:16.628Z,24.87
2019-02-22T09:01:45.523Z,24.17
2019-02-22T09:04:14.343Z,24.07
2019-02-22T09:06:43.272Z,23.10
2019-02-22T09:09:12.085Z,24.13
2019-02-22T09:11:40.925Z,23.43
2019-02-22T09:14:09.737Z,23.27
2019-02-22T09:16:38.719Z,24.17
2019-02-22T09:19:07.535Z,23.90
2019-02-22T09:21:36.389Z,23.03
2019-02-22T09:24:05.276Z,21.53
2019-02-22T09:26:34.113Z,21.70
2019-02-22T09:29:02.939Z,22.30
2019-02-22T09:31:31.852Z,21.47
2019-02-22T09:34:00.672Z,21.63
2019-02-22T09:36:29.501Z,21.37
2019-02-22T09:38:58.339Z,21.60
2019-02-22T09:41:27.151Z,19.47
2019-02-22T09:43:56.135Z,18.97
2019-02-22T09:46:24.967Z,20.03
2019-02-22T09:48:53.910Z,17.13
2019-02-22T09:51:22.881Z,17.77
2019-02-22T09:53:51.788Z,18.10
2019-02-22T09:56:20.627Z,17.00
2019-02-22T09:58:49.476Z,17.63
2019-02-22T10:01:18.278Z,17.87
2019-02-22T10:03:47.129Z,19.13
2019-02-22T10:06:15.988Z,16.87
2019-02-22T10:08:44.823Z,16.13
2019-02-22T10:11:13.730Z,17.00
2019-02-22T10:13:42.590Z,16.17
2019-02-22T10:16:11.486Z,16.23
2019-02-22T10:18:40.351Z,17.33
2019-02-22T10:21:09.317Z,16.20
2019-02-22T10:23:38.216Z,15.50
2019-02-22T10:26:07.031Z,15.50
2019-02-22T10:28:35.875Z,16.47
2019-02-22T10:31:04.793Z,15.13
2019-02-22T10:33:36.640Z,14.87
2019-02-22T10:36:04.283Z,14.40
2019-02-22T10:38:35.836Z,14.00
2019-02-22T10:41:03.656Z,14.17
2019-02-22T10:43:32.511Z,14.53
2019-02-22T10:46:01.305Z,14.30
2019-02-22T10:48:30.196Z,14.67
2019-02-22T10:50:59.498Z,15.27
2019-02-22T10:53:28.507Z,14.53
2019-02-22T10:55:57.331Z,13.47
2019-02-22T10:58:26.156Z,12.30
2019-02-22T11:00:55.072Z,12.27
2019-02-22T11:03:23.912Z,12.53
2019-02-22T11:05:52.736Z,12.47
2019-02-22T11:08:21.579Z,12.57
2019-02-22T11:10:50.437Z,11.57
2019-02-22T11:13:21.444Z,11.47
2019-02-22T11:15:49.988Z,10.80
2019-02-22T11:18:18.894Z,11.33
2019-02-22T11:20:47.716Z,11.27
2019-02-22T11:23:16.835Z,12.03
2019-02-22T11:25:45.739Z,10.90
2019-02-22T11:28:14.634Z,10.47
2019-02-22T11:30:43.576Z,10.53
2019-02-22T11:33:12.477Z,9.40
2019-02-22T11:35:41.303Z,9.70
2019-02-22T11:38:10.118Z,10.20
2019-02-22T11:40:39.041Z,8.87
2019-02-22T11:43:07.931Z,8.77
2019-02-22T11:45:36.819Z,8.63
2019-02-22T11:48:09.016Z,8.60
2019-02-22T11:50:36.286Z,8.70
2019-02-22T11:53:05.221Z,8.43
2019-02-22T11:55:34.295Z,8.13
2019-02-22T11:58:03.206Z,8.27
2019-02-22T12:00:32.623Z,7.50
2019-02-22T12:03:15.798Z,8.17
2019-02-22T12:05:32.084Z,7.73
2019-02-22T12:08:03.424Z,8.03
2019-02-22T12:10:31.536Z,7.50
2019-02-22T12:13:00.442Z,7.30
2019-02-22T12:15:31.423Z,7.07
2019-02-22T12:17:59.885Z,6.97
2019-02-22T12:20:28.696Z,6.77
2019-02-22T12:22:57.526Z,7.10
2019-02-22T12:25:26.407Z,6.97
2019-02-22T12:27:55.316Z,6.37
2019-02-22T12:30:25.674Z,6.97
2019-02-22T12:32:54.686Z,5.93
2019-02-22T12:35:23.495Z,6.33
2019-02-22T12:37:52.335Z,6.87
2019-02-22T12:40:21.319Z,6.27
2019-02-22T12:42:50.207Z,6.60
2019-02-22T12:45:19.028Z,6.10
2019-02-22T12:47:47.858Z,6.13
2019-02-22T12:50:16.664Z,6.00
2019-02-22T12:52:45.568Z,5.90
2019-02-22T12:55:14.380Z,6.20
2019-02-22T12:57:43.219Z,5.77
2019-02-22T13:00:12.963Z,5.50
2019-02-22T13:02:41.791Z,6.47
2019-02-22T13:05:12.711Z,6.53
2019-02-22T13:07:41.626Z,6.70
2019-02-22T13:10:10.599Z,6.30
2019-02-22T13:12:39.521Z,7.40
2019-02-22T13:15:14.173Z,7.27
2019-02-22T13:17:40.839Z,11.53
2019-02-22T13:20:10.178Z,11.03
2019-02-22T13:22:39.145Z,11.20
2019-02-22T13:25:08.203Z,10.70
2019-02-22T13:27:37.029Z,11.13
2019-02-22T13:30:06.340Z,13.33
2019-02-22T13:32:35.178Z,12.37
2019-02-22T13:35:04.246Z,11.07
2019-02-22T13:37:33.140Z,8.33
2019-02-22T13:40:03.154Z,7.77
2019-02-22T13:42:32.135Z,8.97
2019-02-22T13:45:01.161Z,8.93
2019-02-22T13:47:30.044Z,9.40
2019-02-22T13:49:58.959Z,8.80
2019-02-22T13:52:27.856Z,9.57
2019-02-22T13:54:56.699Z,9.30
2019-02-22T13:57:25.599Z,9.60
2019-02-22T13:59:54.488Z,10.10
2019-02-22T14:02:23.384Z,9.63
2019-02-22T14:04:52.291Z,9.17
2019-02-22T14:07:21.212Z,9.50
2019-02-22T14:09:50.108Z,9.20
2019-02-22T14:12:18.921Z,8.50
2019-02-22T14:14:47.756Z,8.33
2019-02-22T14:17:16.578Z,8.53
2019-02-22T14:19:45.402Z,8.87
2019-02-22T14:22:14.269Z,9.23
2019-02-22T14:24:43.108Z,11.20
2019-02-22T14:27:11.935Z,9.20
2019-02-22T14:29:40.856Z,10.20
2019-02-22T14:32:09.664Z,8.27
2019-02-22T14:34:40.730Z,9.10
2019-02-22T14:37:09.146Z,9.27
2019-02-22T14:39:38.930Z,8.40
2019-02-22T14:42:07.811Z,8.43
2019-02-22T14:44:36.740Z,9.10
2019-02-22T14:47:05.707Z,8.73
2019-02-22T14:49:34.591Z,8.90
2019-02-22T14:52:03.507Z,9.13
2019-02-22T14:54:32.340Z,9.77
2019-02-22T14:57:01.183Z,8.23
2019-02-22T14:59:30.065Z,8.47
2019-02-22T15:01:58.887Z,8.40
2019-02-22T15:04:27.779Z,7.53
2019-02-22T15:06:56.644Z,7.77
2019-02-22T15:09:25.460Z,8.40
2019-02-22T15:11:54.276Z,9.13
2019-02-22T15:14:23.107Z,9.30
2019-02-22T15:17:04.131Z,9.67
2019-02-22T15:19:32.947Z,10.37
2019-02-22T15:22:01.807Z,10.87
2019-02-22T15:24:32.984Z,11.60
2019-02-22T15:27:01.290Z,11.33
2019-02-22T15:29:30.114Z,11.70
2019-02-22T15:31:58.955Z,12.70
2019-02-22T15:34:27.776Z,11.43
2019-02-22T15:36:56.681Z,11.90
2019-02-22T15:39:25.566Z,11.70
2019-02-22T15:41:54.420Z,11.67
2019-02-22T15:44:23.305Z,11.97
2019-02-22T15:46:52.135Z,14.00
2019-02-22T15:49:20.999Z,14.47
2019-02-22T15:51:49.854Z,14.37
2019-02-22T15:54:18.655Z,14.37
2019-02-22T15:56:47.721Z,15.47
2019-02-22T15:59:16.942Z,16.03
2019-02-22T16:01:54.836Z,17.73
2019-02-22T16:04:21.979Z,16.40
2019-02-22T16:06:50.971Z,17.07
2019-02-22T16:09:19.864Z,17.00
2019-02-22T16:11:48.687Z,15.30
2019-02-22T16:14:17.577Z,15.53
2019-02-22T16:16:46.464Z,15.23
2019-02-22T16:19:15.264Z,14.97
2019-02-22T16:21:44.106Z,15.63
2019-02-22T16:24:12.987Z,15.27
2019-02-22T16:26:41.815Z,17.23
2019-02-22T16:29:10.613Z,17.40
2019-02-22T16:31:39.421Z,17.93
2019-02-22T16:34:08.227Z,18.77
2019-02-22T16:36:37.055Z,19.13
2019-02-22T16:39:06.615Z,19.33
2019-02-22T16:41:35.499Z,19.20
2019-02-22T16:44:06.487Z,18.60
2019-02-22T16:46:37.548Z,17.60
2019-02-22T16:49:08.291Z,16.97
2019-02-22T16:51:39.658Z,16.83
2019-02-22T16:54:10.959Z,17.17
2019-02-22T16:56:41.667Z,15.97
2019-02-22T16:59:15.103Z,16.30
2019-02-22T17:01:45.017Z,16.17
2019-02-22T17:04:15.838Z,15.93
2019-02-22T17:06:46.487Z,14.77
2019-02-22T17:09:17.620Z,16.27
2019-02-22T17:11:49.775Z,16.20
2019-02-22T17:14:35.422Z,15.53
2019-02-22T17:24:46.983Z,15.60
2019-02-22T17:28:01.188Z,16.50
2019-02-22T17:31:03.375Z,15.13
2019-02-22T17:37:14.998Z,14.37
2019-02-22T17:39:45.918Z,15.33
2019-02-22T17:42:14.391Z,16.20
2019-02-22T17:44:43.223Z,16.70
2019-02-22T17:47:12.080Z,16.20
2019-02-22T17:49:41.327Z,16.37
2019-02-22T17:52:10.435Z,16.50
2019-02-22T17:54:39.262Z,16.37
2019-02-22T17:57:08.051Z,17.27
2019-02-22T17:59:37.622Z,16.63
2019-02-22T18:02:06.459Z,15.83
2019-02-22T18:04:35.279Z,16.20
2019-02-22T18:07:04.168Z,15.87
2019-02-22T18:09:32.976Z,16.27
2019-02-22T18:12:01.799Z,15.23
2019-02-22T18:14:30.749Z,15.63
2019-02-22T18:17:08.067Z,15.77
2019-02-22T18:19:31.897Z,15.97
2019-02-22T18:22:00.707Z,15.33
2019-02-22T18:24:29.511Z,15.97
2019-02-22T18:26:58.364Z,15.27
2019-02-22T18:29:35.001Z,15.67
2019-02-22T18:31:58.053Z,15.07
2019-02-22T18:34:26.856Z,15.13
2019-02-22T18:36:55.707Z,15.33
2019-02-22T18:39:24.577Z,15.07
2019-02-22T18:41:53.406Z,14.43
2019-02-22T18:44:22.234Z,15.07
2019-02-22T18:46:51.061Z,14.53
2019-02-22T18:49:19.888Z,14.87
2019-02-22T18:51:48.775Z,14.80
2019-02-22T18:54:17.695Z,14.13
2019-02-22T18:56:46.539Z,14.53
2019-02-22T18:59:15.896Z,14.90
2019-02-22T19:01:45.005Z,15.37
2019-02-22T19:04:14.086Z,15.90
2019-02-22T19:06:43.308Z,17.07
2019-02-22T19:09:12.358Z,17.13
2019-02-22T19:11:42.042Z,16.53
2019-02-22T19:14:11.479Z,17.80
2019-02-22T19:16:41.099Z,19.00
2019-02-22T19:19:10.140Z,19.80
2019-02-22T19:21:39.119Z,21.20
2019-02-22T19:24:08.213Z,21.20
2019-02-22T19:26:38.240Z,21.57
2019-02-22T19:29:07.239Z,24.17
2019-02-22T19:31:36.125Z,26.10
2019-02-22T19:34:06.007Z,26.87
2019-02-22T19:36:35.011Z,28.97
2019-02-22T19:39:04.459Z,29.67
2019-02-22T19:41:33.451Z,30.07
2019-02-22T19:44:02.419Z,28.63
2019-02-22T19:46:31.311Z,29.53
2019-02-22T19:49:00.265Z,31.23
2019-02-22T19:51:29.251Z,32.87
2019-02-22T19:53:58.209Z,31.53
2019-02-22T19:56:27.356Z,32.80
2019-02-22T19:58:56.479Z,33.10
2019-02-22T20:01:25.369Z,32.70
2019-02-22T20:03:54.207Z,32.97
2019-02-22T20:06:23.137Z,33.37
2019-02-22T20:08:52.044Z,32.70
2019-02-22T20:11:21.344Z,34.83
2019-02-22T20:13:50.387Z,33.60
2019-02-22T20:16:19.366Z,32.73
2019-02-22T20:18:48.183Z,31.53
2019-02-22T20:21:17.040Z,34.23
2019-02-22T20:23:46.130Z,33.97
2019-02-22T20:26:14.979Z,33.23
2019-02-22T20:28:43.839Z,34.67
2019-02-22T20:31:19.817Z,33.93
2019-02-22T20:33:43.160Z,35.87
2019-02-22T20:36:12.160Z,33.97
2019-02-22T20:38:41.434Z,35.63
2019-02-22T20:41:10.811Z,35.57
2019-02-22T20:43:39.656Z,35.70
2019-02-22T20:46:09.009Z,35.00
2019-02-22T20:48:38.914Z,35.20
2019-02-22T20:51:08.245Z,34.57
2019-02-22T20:53:37.207Z,33.70
2019-02-22T20:56:06.245Z,34.73
2019-02-22T20:58:35.292Z,32.37
2019-02-22T21:01:14.257Z,35.10
2019-02-22T21:03:36.399Z,32.97
2019-02-22T21:06:06.829Z,33.47
2019-02-22T21:08:35.995Z,33.67
2019-02-22T21:11:04.928Z,32.67
2019-02-22T21:13:34.332Z,32.60
2019-02-22T21:16:03.268Z,30.43
2019-02-22T21:18:32.379Z,32.87
2019-02-22T21:21:01.334Z,32.87
2019-02-22T21:23:30.336Z,33.20
2019-02-22T21:26:00.723Z,31.00
2019-02-22T21:28:29.576Z,30.40
2019-02-22T21:30:58.424Z,28.23
2019-02-22T21:33:27.243Z,28.73
2019-02-22T21:35:56.253Z,28.10
2019-02-22T21:38:25.108Z,26.93
2019-02-22T21:40:54.097Z,26.03
2019-02-22T21:43:22.935Z,27.23
2019-02-22T21:45:51.776Z,24.93
2019-02-22T21:48:27.591Z,24.77
2019-02-22T21:50:51.349Z,25.20
2019-02-22T21:53:20.166Z,24.20
2019-02-22T21:55:49.048Z,24.60
2019-02-22T21:58:17.876Z,23.70
2019-02-22T22:00:46.715Z,22.53
2019-02-22T22:03:15.578Z,21.53
2019-02-22T22:05:44.391Z,21.80
2019-02-22T22:08:13.257Z,21.67
2019-02-22T22:10:42.087Z,21.30
2019-02-22T22:13:10.916Z,20.63
2019-02-22T22:15:39.730Z,21.03
2019-02-22T22:18:08.650Z,20.43
2019-02-22T22:20:37.474Z,20.57
2019-02-22T22:23:06.391Z,19.93
2019-02-22T22:25:35.343Z,20.37
2019-02-22T22:28:04.175Z,19.47
2019-02-22T22:30:33.163Z,19.27
2019-02-22T22:33:01.996Z,19.60
2019-02-22T22:35:30.823Z,19.70
2019-02-22T22:37:59.658Z,19.17
2019-02-22T22:40:28.550Z,19.90
2019-02-22T22:42:57.396Z,18.40
2019-02-22T22:45:26.301Z,20.17
2019-02-22T22:47:55.152Z,18.20
2019-02-22T22:50:24.043Z,18.70
2019-02-22T22:52:52.903Z,19.37
2019-02-22T22:55:21.743Z,18.83
2019-02-22T22:57:50.639Z,19.80
2019-02-22T23:00:49.653Z,19.73
2019-02-22T23:03:18.823Z,18.50
2019-02-22T23:05:47.787Z,19.70
2019-02-22T23:08:16.795Z,19.07
2019-02-22T23:10:45.788Z,19.00
2019-02-22T23:13:14.747Z,18.87
2019-02-22T23:15:43.567Z,19.03
2019-02-22T23:18:12.492Z,16.70
2019-02-22T23:20:41.429Z,17.67
2019-02-22T23:23:10.320Z,18.43
2019-02-22T23:25:39.307Z,17.73
2019-02-22T23:28:08.133Z,18.47
2019-02-22T23:30:37.137Z,18.43
2019-02-22T23:33:06.094Z,19.33
2019-02-22T23:35:35.074Z,18.23
2019-02-22T23:38:03.908Z,19.03
2019-02-22T23:40:32.744Z,18.33
2019-02-22T23:43:01.649Z,18.57
2019-02-22T23:45:30.647Z,17.47
2019-02-22T23:47:59.548Z,18.83
2019-02-22T23:50:28.516Z,18.37
2019-02-22T23:52:57.407Z,19.30
2019-02-22T23:55:26.400Z,19.03
2019-02-22T23:57:55.303Z,18.37
